sensor_id;sensor_type;location;lat;lon;timestamp;P1;durP1;ratioP1;P2;durP2;ratioP2
4527;SDS011;62320;51.520;6.818;2023-03-14T00:08:21;6.18;;;1.40;;
4527;SDS011;62320;51.520;6.818;2023-03-14T00:18:22;5.72;;;1.77;;
4527;SDS011;62320;51.520;6.818;2023-03-14T00:28:25;10.27;;;2.10;;
4527;SDS011;62320;51.520;6.818;2023-03-14T00:38:26;6.17;;;1.57;;
4527;SDS011;62320;51.520;6.818;2023-03-14T00:48:28;8.10;;;1.92;;
4527;SDS011;62320;51.520;6.818;2023-03-14T00:58:30;5.93;;;1.47;;
4527;SDS011;62320;51.520;6.818;2023-03-14T01:08:32;8.13;;;2.03;;
4527;SDS011;62320;51.520;6.818;2023-03-14T01:18:33;5.57;;;1.40;;
4527;SDS011;62320;51.520;6.818;2023-03-14T01:28:36;3.50;;;1.30;;
4527;SDS011;62320;51.520;6.818;2023-03-14T01:38:38;4.37;;;0.87;;
4527;SDS011;62320;51.520;6.818;2023-03-14T01:48:45;6.00;;;1.10;;
4527;SDS011;62320;51.520;6.818;2023-03-14T01:58:48;5.43;;;1.17;;
4527;SDS011;62320;51.520;6.818;2023-03-14T02:08:53;5.33;;;0.90;;
4527;SDS011;62320;51.520;6.818;2023-03-14T02:18:55;5.97;;;1.00;;
4527;SDS011;62320;51.520;6.818;2023-03-14T02:28:57;4.25;;;0.90;;
4527;SDS011;62320;51.520;6.818;2023-03-14T02:39:14;5.77;;;1.20;;
4527;SDS011;62320;51.520;6.818;2023-03-14T02:49:20;7.43;;;1.43;;
4527;SDS011;62320;51.520;6.818;2023-03-14T02:59:22;8.10;;;2.10;;
4527;SDS011;62320;51.520;6.818;2023-03-14T03:09:24;13.00;;;2.50;;
4527;SDS011;62320;51.520;6.818;2023-03-14T03:19:25;7.83;;;2.03;;
4527;SDS011;62320;51.520;6.818;2023-03-14T03:29:26;7.55;;;1.98;;
4527;SDS011;62320;51.520;6.818;2023-03-14T03:39:28;8.73;;;1.10;;
4527;SDS011;62320;51.520;6.818;2023-03-14T03:49:30;8.43;;;1.00;;
4527;SDS011;62320;51.520;6.818;2023-03-14T03:59:32;6.60;;;1.10;;
4527;SDS011;62320;51.520;6.818;2023-03-14T04:09:34;7.85;;;1.70;;
4527;SDS011;62320;51.520;6.818;2023-03-14T04:19:35;7.20;;;2.10;;
4527;SDS011;62320;51.520;6.818;2023-03-14T04:29:37;8.17;;;1.30;;
4527;SDS011;62320;51.520;6.818;2023-03-14T04:39:38;5.05;;;0.88;;
4527;SDS011;62320;51.520;6.818;2023-03-14T04:49:40;6.20;;;1.80;;
4527;SDS011;62320;51.520;6.818;2023-03-14T04:59:41;3.83;;;0.70;;
4527;SDS011;62320;51.520;6.818;2023-03-14T05:09:43;6.45;;;1.30;;
4527;SDS011;62320;51.520;6.818;2023-03-14T05:19:44;7.32;;;1.50;;
4527;SDS011;62320;51.520;6.818;2023-03-14T05:29:47;6.97;;;1.73;;
4527;SDS011;62320;51.520;6.818;2023-03-14T05:39:48;4.93;;;1.57;;
4527;SDS011;62320;51.520;6.818;2023-03-14T05:49:50;7.50;;;1.60;;
4527;SDS011;62320;51.520;6.818;2023-03-14T05:59:51;5.93;;;1.80;;
4527;SDS011;62320;51.520;6.818;2023-03-14T06:09:53;5.30;;;1.70;;
4527;SDS011;62320;51.520;6.818;2023-03-14T06:19:54;7.40;;;1.30;;
4527;SDS011;62320;51.520;6.818;2023-03-14T06:29:56;6.30;;;1.97;;
4527;SDS011;62320;51.520;6.818;2023-03-14T06:39:57;5.73;;;1.70;;
4527;SDS011;62320;51.520;6.818;2023-03-14T06:49:59;4.35;;;1.20;;
4527;SDS011;62320;51.520;6.818;2023-03-14T07:00:00;4.55;;;1.40;;
4527;SDS011;62320;51.520;6.818;2023-03-14T07:10:02;4.73;;;1.23;;
4527;SDS011;62320;51.520;6.818;2023-03-14T07:20:03;6.63;;;2.00;;
4527;SDS011;62320;51.520;6.818;2023-03-14T07:30:08;6.03;;;1.83;;
4527;SDS011;62320;51.520;6.818;2023-03-14T07:40:10;6.03;;;1.93;;
4527;SDS011;62320;51.520;6.818;2023-03-14T07:50:16;4.80;;;1.77;;
4527;SDS011;62320;51.520;6.818;2023-03-14T08:00:17;6.07;;;1.90;;
4527;SDS011;62320;51.520;6.818;2023-03-14T08:10:19;5.03;;;1.30;;
4527;SDS011;62320;51.520;6.818;2023-03-14T08:20:24;5.07;;;1.27;;
4527;SDS011;62320;51.520;6.818;2023-03-14T08:30:28;3.75;;;1.20;;
4527;SDS011;62320;51.520;6.818;2023-03-14T08:40:30;5.43;;;1.85;;
4527;SDS011;62320;51.520;6.818;2023-03-14T08:50:32;6.90;;;1.50;;
4527;SDS011;62320;51.520;6.818;2023-03-14T09:00:34;5.10;;;1.50;;
4527;SDS011;62320;51.520;6.818;2023-03-14T09:10:36;3.88;;;0.80;;
4527;SDS011;62320;51.520;6.818;2023-03-14T09:20:37;3.20;;;0.60;;
4527;SDS011;62320;51.520;6.818;2023-03-14T09:30:40;2.50;;;0.50;;
4527;SDS011;62320;51.520;6.818;2023-03-14T09:40:42;4.75;;;1.10;;
4527;SDS011;62320;51.520;6.818;2023-03-14T09:50:44;3.40;;;0.60;;
4527;SDS011;62320;51.520;6.818;2023-03-14T10:00:51;3.90;;;0.70;;
4527;SDS011;62320;51.520;6.818;2023-03-14T10:10:56;4.47;;;1.15;;
4527;SDS011;62320;51.520;6.818;2023-03-14T10:21:05;4.35;;;0.68;;
4527;SDS011;62320;51.520;6.818;2023-03-14T10:31:17;3.03;;;0.80;;
4527;SDS011;62320;51.520;6.818;2023-03-14T10:41:26;5.23;;;0.77;;
4527;SDS011;62320;51.520;6.818;2023-03-14T10:51:29;2.60;;;0.70;;
4527;SDS011;62320;51.520;6.818;2023-03-14T11:01:35;4.10;;;0.87;;
4527;SDS011;62320;51.520;6.818;2023-03-14T11:11:39;3.90;;;1.00;;
4527;SDS011;62320;51.520;6.818;2023-03-14T11:21:46;3.67;;;0.70;;
4527;SDS011;62320;51.520;6.818;2023-03-14T11:32:10;3.20;;;0.80;;
4527;SDS011;62320;51.520;6.818;2023-03-14T11:42:16;3.50;;;0.70;;
4527;SDS011;62320;51.520;6.818;2023-03-14T11:52:29;4.63;;;1.00;;
4527;SDS011;62320;51.520;6.818;2023-03-14T12:02:53;3.33;;;0.82;;
4527;SDS011;62320;51.520;6.818;2023-03-14T12:13:12;3.97;;;0.93;;
4527;SDS011;62320;51.520;6.818;2023-03-14T12:23:16;4.20;;;1.07;;
4527;SDS011;62320;51.520;6.818;2023-03-14T12:43:29;10.40;;;1.40;;
4527;SDS011;62320;51.520;6.818;2023-03-14T13:03:50;6.43;;;1.27;;
4527;SDS011;62320;51.520;6.818;2023-03-14T13:13:57;10.27;;;1.20;;
4527;SDS011;62320;51.520;6.818;2023-03-14T13:24:04;10.70;;;1.77;;
4527;SDS011;62320;51.520;6.818;2023-03-14T13:34:09;11.05;;;1.40;;
4527;SDS011;62320;51.520;6.818;2023-03-14T13:54:29;10.03;;;1.60;;
4527;SDS011;62320;51.520;6.818;2023-03-14T14:04:33;10.17;;;1.60;;
4527;SDS011;62320;51.520;6.818;2023-03-14T14:14:39;9.60;;;1.33;;
4527;SDS011;62320;51.520;6.818;2023-03-14T14:24:55;5.83;;;1.00;;
4527;SDS011;62320;51.520;6.818;2023-03-14T14:34:58;4.37;;;0.57;;
4527;SDS011;62320;51.520;6.818;2023-03-14T14:45:02;7.82;;;1.20;;
4527;SDS011;62320;51.520;6.818;2023-03-14T14:55:10;7.50;;;1.27;;
4527;SDS011;62320;51.520;6.818;2023-03-14T15:05:20;6.97;;;1.00;;
4527;SDS011;62320;51.520;6.818;2023-03-14T15:15:24;5.40;;;1.10;;
4527;SDS011;62320;51.520;6.818;2023-03-14T15:25:25;7.05;;;1.00;;
4527;SDS011;62320;51.520;6.818;2023-03-14T15:35:47;6.47;;;0.90;;
4527;SDS011;62320;51.520;6.818;2023-03-14T15:45:49;4.70;;;0.60;;
4527;SDS011;62320;51.520;6.818;2023-03-14T15:55:51;5.85;;;1.08;;
4527;SDS011;62320;51.520;6.818;2023-03-14T16:05:53;5.47;;;0.93;;
4527;SDS011;62320;51.520;6.818;2023-03-14T16:15:59;7.77;;;0.80;;
4527;SDS011;62320;51.520;6.818;2023-03-14T16:26:03;4.18;;;0.73;;
4527;SDS011;62320;51.520;6.818;2023-03-14T16:36:09;4.20;;;0.53;;
4527;SDS011;62320;51.520;6.818;2023-03-14T16:46:14;6.13;;;0.70;;
4527;SDS011;62320;51.520;6.818;2023-03-14T16:56:17;4.18;;;1.08;;
4527;SDS011;62320;51.520;6.818;2023-03-14T17:06:20;4.30;;;0.80;;
4527;SDS011;62320;51.520;6.818;2023-03-14T17:16:24;4.70;;;0.90;;
4527;SDS011;62320;51.520;6.818;2023-03-14T17:26:26;7.60;;;1.00;;
4527;SDS011;62320;51.520;6.818;2023-03-14T17:36:28;4.53;;;0.80;;
4527;SDS011;62320;51.520;6.818;2023-03-14T17:46:30;3.40;;;0.80;;
4527;SDS011;62320;51.520;6.818;2023-03-14T17:56:32;7.77;;;0.73;;
4527;SDS011;62320;51.520;6.818;2023-03-14T18:06:34;8.00;;;1.20;;
4527;SDS011;62320;51.520;6.818;2023-03-14T18:16:35;6.57;;;1.07;;
4527;SDS011;62320;51.520;6.818;2023-03-14T18:26:37;5.87;;;1.40;;
4527;SDS011;62320;51.520;6.818;2023-03-14T18:36:39;6.07;;;1.15;;
4527;SDS011;62320;51.520;6.818;2023-03-14T18:46:40;4.78;;;0.77;;
4527;SDS011;62320;51.520;6.818;2023-03-14T18:56:42;10.83;;;1.10;;
4527;SDS011;62320;51.520;6.818;2023-03-14T19:06:44;6.77;;;1.30;;
4527;SDS011;62320;51.520;6.818;2023-03-14T19:16:45;7.90;;;1.15;;
4527;SDS011;62320;51.520;6.818;2023-03-14T19:26:48;6.60;;;1.20;;
4527;SDS011;62320;51.520;6.818;2023-03-14T19:36:51;5.77;;;1.47;;
4527;SDS011;62320;51.520;6.818;2023-03-14T19:46:53;7.32;;;1.08;;
4527;SDS011;62320;51.520;6.818;2023-03-14T19:56:54;3.90;;;0.93;;
4527;SDS011;62320;51.520;6.818;2023-03-14T20:06:55;6.67;;;0.90;;
4527;SDS011;62320;51.520;6.818;2023-03-14T20:16:57;8.02;;;1.02;;
4527;SDS011;62320;51.520;6.818;2023-03-14T20:26:59;6.28;;;1.25;;
4527;SDS011;62320;51.520;6.818;2023-03-14T20:37:01;7.10;;;1.03;;
4527;SDS011;62320;51.520;6.818;2023-03-14T20:47:02;7.77;;;1.47;;
4527;SDS011;62320;51.520;6.818;2023-03-14T20:57:04;7.25;;;1.20;;
4527;SDS011;62320;51.520;6.818;2023-03-14T21:07:06;7.97;;;1.00;;
4527;SDS011;62320;51.520;6.818;2023-03-14T21:17:07;10.10;;;1.40;;
4527;SDS011;62320;51.520;6.818;2023-03-14T21:27:09;6.85;;;1.30;;
4527;SDS011;62320;51.520;6.818;2023-03-14T21:37:12;8.47;;;1.57;;
4527;SDS011;62320;51.520;6.818;2023-03-14T21:47:15;5.53;;;1.00;;
4527;SDS011;62320;51.520;6.818;2023-03-14T21:57:16;8.82;;;1.70;;
4527;SDS011;62320;51.520;6.818;2023-03-14T22:07:18;12.32;;;1.88;;
4527;SDS011;62320;51.520;6.818;2023-03-14T22:17:21;6.20;;;1.43;;
4527;SDS011;62320;51.520;6.818;2023-03-14T22:27:22;8.13;;;1.90;;
4527;SDS011;62320;51.520;6.818;2023-03-14T22:37:24;11.35;;;2.17;;
4527;SDS011;62320;51.520;6.818;2023-03-14T22:47:25;9.03;;;2.53;;
4527;SDS011;62320;51.520;6.818;2023-03-14T22:57:27;8.57;;;2.30;;
4527;SDS011;62320;51.520;6.818;2023-03-14T23:07:28;8.30;;;1.70;;
4527;SDS011;62320;51.520;6.818;2023-03-14T23:17:30;8.07;;;1.30;;
4527;SDS011;62320;51.520;6.818;2023-03-14T23:27:31;8.60;;;1.30;;
4527;SDS011;62320;51.520;6.818;2023-03-14T23:37:33;8.23;;;1.70;;
4527;SDS011;62320;51.520;6.818;2023-03-14T23:47:34;9.70;;;2.25;;
4527;SDS011;62320;51.520;6.818;2023-03-14T23:57:36;7.50;;;1.70;;
